Time;durP1;ratioP1;P1;durP2;ratioP2;P2;SDS_P1;SDS_P2;PMS_P1;PMS_P2;Temp;Humidity;BMP_temperature;BMP_pressure;BME280_temperature;BME280_humidity;BME280_pressure;Samples;Min_cycle;Max_cycle;Signal;HPM_P1;HPM_P2
2022/11/27 00:02:23;;;;;;;27.13;10.03;;;6.50;99.90;;;;;;5037843;28;20206;-68
2022/11/27 00:04:49;;;;;;;20.90;10.17;;;6.40;99.90;;;;;;5029289;28;20208;-69
2022/11/27 00:07:16;;;;;;;23.63;9.43;;;6.40;99.90;;;;;;5040370;28;20203;-69
2022/11/27 00:09:43;;;;;;;25.80;9.33;;;6.40;99.90;;;;;;5019970;28;20668;-68
2022/11/27 00:12:10;;;;;;;30.90;9.33;;;6.40;99.90;;;;;;5042665;28;20664;-69
2022/11/27 00:14:40;;;;;;;24.93;9.47;;;6.30;99.90;;;;;;5038541;28;20237;-68
2022/11/27 00:17:06;;;;;;;20.87;9.43;;;6.30;99.90;;;;;;5045440;28;20674;-68
2022/11/27 00:19:33;;;;;;;25.13;9.70;;;6.30;99.90;;;;;;5041394;28;20200;-70
2022/11/27 00:22:00;;;;;;;22.73;10.30;;;6.20;99.90;;;;;;5041937;28;20615;-68
2022/11/27 00:24:26;;;;;;;26.73;10.27;;;6.20;99.90;;;;;;5039188;28;20226;-69
2022/11/27 00:26:53;;;;;;;24.13;10.20;;;6.20;99.90;;;;;;5046708;28;20253;-69
2022/11/27 00:29:20;;;;;;;28.00;10.50;;;6.20;99.90;;;;;;5038644;28;20214;-69
2022/11/27 00:31:47;;;;;;;20.87;10.40;;;6.10;99.90;;;;;;5050762;28;20593;-69
2022/11/27 00:34:13;;;;;;;27.87;10.80;;;6.10;99.90;;;;;;5044627;28;20214;-69
2022/11/27 00:36:40;;;;;;;29.10;10.80;;;6.10;99.90;;;;;;5045705;28;20225;-69
2022/11/27 00:39:14;;;;;;;27.33;11.23;;;6.00;99.90;;;;;;5028208;28;20740;-69
2022/11/27 00:41:40;;;;;;;31.13;10.50;;;6.00;99.90;;;;;;5042469;28;20264;-70
2022/11/27 00:44:07;;;;;;;31.43;10.07;;;6.00;99.90;;;;;;5033307;28;20293;-69
2022/11/27 00:46:34;;;;;;;27.73;10.93;;;6.00;99.90;;;;;;5041963;28;20290;-67
2022/11/27 00:49:04;;;;;;;28.70;11.83;;;6.00;99.90;;;;;;5042615;28;20223;-68
2022/11/27 00:51:31;;;;;;;28.80;10.63;;;6.00;99.90;;;;;;5042698;28;20199;-70
2022/11/27 00:53:58;;;;;;;24.37;10.27;;;5.90;99.90;;;;;;5046045;28;20299;-70
2022/11/27 00:56:27;;;;;;;23.03;10.83;;;5.90;99.90;;;;;;5046832;28;20328;-69
2022/11/27 00:58:54;;;;;;;25.13;10.13;;;5.90;99.90;;;;;;5042072;28;20680;-69
2022/11/27 01:01:24;;;;;;;25.60;10.27;;;5.90;99.90;;;;;;5048974;28;20222;-69
2022/11/27 01:03:51;;;;;;;26.97;10.63;;;5.90;99.90;;;;;;5040028;28;20547;-69
2022/11/27 01:06:21;;;;;;;25.67;10.80;;;5.90;99.90;;;;;;5041341;28;20204;-68
2022/11/27 01:08:48;;;;;;;31.90;10.73;;;5.80;99.90;;;;;;5044003;28;20236;-70
2022/11/27 01:11:24;;;;;;;18.67;9.60;;;5.80;99.90;;;;;;5040072;28;20214;-69
2022/11/27 01:13:52;;;;;;;27.83;11.20;;;5.80;99.90;;;;;;5046383;28;20210;-69
2022/11/27 01:16:22;;;;;;;22.40;11.10;;;5.80;99.90;;;;;;5040924;28;20236;-69
2022/11/27 01:18:50;;;;;;;24.07;10.57;;;5.80;99.90;;;;;;5042347;28;20211;-67
2022/11/27 01:21:19;;;;;;;28.13;10.67;;;5.80;99.90;;;;;;5024346;28;20667;-68
2022/11/27 01:23:46;;;;;;;22.50;10.57;;;5.70;99.90;;;;;;5043271;28;20318;-69
2022/11/27 01:26:14;;;;;;;21.17;10.53;;;5.70;99.90;;;;;;5040849;28;20402;-69
2022/11/27 01:28:41;;;;;;;27.63;11.17;;;5.80;99.90;;;;;;5044969;28;20670;-69
2022/11/27 01:31:15;;;;;;;24.43;10.03;;;5.80;99.90;;;;;;5057916;28;20258;-69
2022/11/27 01:33:43;;;;;;;29.27;11.13;;;5.80;99.90;;;;;;5041300;28;20265;-69
2022/11/27 01:36:14;;;;;;;29.67;12.23;;;5.80;99.90;;;;;;5045823;28;20538;-69
2022/11/27 01:38:41;;;;;;;26.50;11.07;;;5.80;99.90;;;;;;5041968;28;20304;-70
2022/11/27 01:41:29;;;;;;;28.67;11.47;;;5.80;99.90;;;;;;5044439;28;20249;-70
2022/11/27 01:44:02;;;;;;;27.93;10.87;;;5.80;99.90;;;;;;5044336;28;20223;-69
2022/11/27 01:47:08;;;;;;;23.63;11.53;;;5.80;99.90;;;;;;5038341;28;20495;-69
2022/11/27 01:49:42;;;;;;;27.50;10.93;;;5.80;99.90;;;;;;5027026;28;20248;-68
2022/11/27 01:52:15;;;;;;;30.27;12.40;;;5.80;99.90;;;;;;5047641;28;20233;-70
2022/11/27 01:54:47;;;;;;;18.43;10.93;;;5.90;99.90;;;;;;5042363;28;20306;-69
2022/11/27 01:57:23;;;;;;;25.30;10.13;;;5.90;99.90;;;;;;5044002;28;20308;-69
2022/11/27 01:59:53;;;;;;;24.80;11.27;;;5.90;99.90;;;;;;5018957;28;20211;-69
2022/11/27 02:02:20;;;;;;;24.67;11.27;;;5.90;99.90;;;;;;5043404;28;20325;-69
2022/11/27 02:04:47;;;;;;;23.50;11.80;;;5.90;99.90;;;;;;5047232;28;20214;-70
2022/11/27 02:07:14;;;;;;;22.83;10.30;;;6.00;99.90;;;;;;5047697;28;20300;-70
2022/11/27 02:09:41;;;;;;;26.60;11.20;;;5.90;99.90;;;;;;5047005;28;20216;-69
2022/11/27 02:12:24;;;;;;;20.73;10.37;;;5.90;99.90;;;;;;5039618;28;20224;-69
2022/11/27 02:15:07;;;;;;;22.40;10.63;;;5.90;99.90;;;;;;5045301;28;20219;-69
2022/11/27 02:17:56;;;;;;;23.83;10.77;;;5.90;99.90;;;;;;5044662;28;20235;-69
2022/11/27 02:20:36;;;;;;;17.17;10.00;;;5.90;99.90;;;;;;5038352;28;20248;-69
2022/11/27 02:23:09;;;;;;;25.30;9.83;;;5.90;99.90;;;;;;5041468;28;20213;-68
2022/11/27 02:25:54;;;;;;;23.60;10.00;;;5.90;99.90;;;;;;5039380;28;20205;-70
2022/11/27 02:28:58;;;;;;;20.33;10.43;;;5.80;99.90;;;;;;5039035;28;20293;-69
2022/11/27 02:31:46;;;;;;;20.37;9.43;;;5.80;99.90;;;;;;5045594;28;20227;-69
2022/11/27 02:34:18;;;;;;;23.43;9.73;;;5.80;99.90;;;;;;5039757;28;20302;-69
2022/11/27 02:36:53;;;;;;;22.00;9.50;;;5.80;99.90;;;;;;5041792;28;20774;-68
2022/11/27 02:39:30;;;;;;;21.73;10.67;;;5.70;99.90;;;;;;5045979;28;20293;-68
2022/11/27 02:42:10;;;;;;;21.23;9.07;;;5.70;99.90;;;;;;5041455;28;20299;-69
2022/11/27 02:44:43;;;;;;;19.57;9.97;;;5.70;99.90;;;;;;5045077;28;20212;-69
2022/11/27 02:47:11;;;;;;;20.87;10.10;;;5.70;99.90;;;;;;5045637;28;20212;-69
2022/11/27 02:49:40;;;;;;;24.90;10.73;;;5.60;99.90;;;;;;5041876;28;20209;-70
2022/11/27 02:52:08;;;;;;;19.73;9.60;;;5.70;99.90;;;;;;5042989;28;20271;-70
2022/11/27 02:54:36;;;;;;;23.27;9.47;;;5.70;99.90;;;;;;5043257;28;20932;-68
2022/11/27 02:57:05;;;;;;;21.67;9.47;;;5.70;99.90;;;;;;5043710;28;20241;-69
2022/11/27 02:59:33;;;;;;;26.30;10.97;;;5.70;99.90;;;;;;5029730;28;20237;-69
2022/11/27 03:02:05;;;;;;;25.47;10.37;;;5.70;99.90;;;;;;5030259;28;20328;-69
2022/11/27 03:04:43;;;;;;;22.43;10.33;;;5.70;99.90;;;;;;5047361;28;20263;-69
2022/11/27 03:07:21;;;;;;;21.13;9.37;;;5.70;99.90;;;;;;5042789;28;20289;-68
2022/11/27 03:09:57;;;;;;;18.70;9.03;;;5.70;99.90;;;;;;5048512;28;20297;-69
2022/11/27 03:12:24;;;;;;;21.50;10.23;;;5.70;99.90;;;;;;5041082;28;20651;-69
2022/11/27 03:14:51;;;;;;;18.73;9.33;;;5.70;99.90;;;;;;5051548;28;20212;-69
2022/11/27 03:17:32;;;;;;;18.47;8.60;;;5.70;99.90;;;;;;5044795;28;20261;-69
2022/11/27 03:20:15;;;;;;;21.00;9.57;;;5.70;99.90;;;;;;5048759;28;20628;-70
2022/11/27 03:22:42;;;;;;;26.83;9.77;;;5.80;99.90;;;;;;5062207;28;20197;-69
2022/11/27 03:25:09;;;;;;;20.07;9.50;;;5.70;99.90;;;;;;5044062;28;20204;-68
2022/11/27 03:27:43;;;;;;;19.43;8.30;;;5.80;99.90;;;;;;5046454;28;20276;-69
2022/11/27 03:30:13;;;;;;;20.30;7.80;;;5.80;99.90;;;;;;5042982;28;20232;-68
2022/11/27 03:32:40;;;;;;;19.43;8.20;;;5.80;99.90;;;;;;5041125;28;20210;-68
2022/11/27 03:35:10;;;;;;;24.80;8.07;;;5.80;99.90;;;;;;5045672;28;20646;-68
2022/11/27 03:37:37;;;;;;;20.33;8.40;;;5.80;99.90;;;;;;5040851;28;20713;-69
2022/11/27 03:40:05;;;;;;;20.47;8.20;;;5.80;99.90;;;;;;5050518;28;20210;-70
2022/11/27 03:42:57;;;;;;;17.80;8.03;;;5.80;99.90;;;;;;5044777;28;20310;-69
2022/11/27 03:45:37;;;;;;;22.80;8.73;;;5.80;99.90;;;;;;5045390;28;20211;-69
2022/11/27 03:48:32;;;;;;;20.53;8.20;;;5.90;99.90;;;;;;5051740;28;20675;-68
2022/11/27 03:51:13;;;;;;;20.00;7.10;;;5.90;99.90;;;;;;5042648;28;20592;-69
2022/11/27 03:54:03;;;;;;;18.40;8.03;;;5.90;99.90;;;;;;5030613;28;20299;-68
2022/11/27 03:56:41;;;;;;;14.87;7.37;;;5.90;99.90;;;;;;5047937;28;20364;-69
2022/11/27 03:59:16;;;;;;;21.13;7.03;;;5.90;99.90;;;;;;5038707;28;20302;-69
2022/11/27 04:01:43;;;;;;;16.37;7.13;;;6.00;99.90;;;;;;5043697;28;20672;-69
2022/11/27 04:04:10;;;;;;;17.47;6.77;;;6.00;99.90;;;;;;5040366;28;20202;-70
2022/11/27 04:06:37;;;;;;;14.40;6.93;;;6.00;99.90;;;;;;5047239;28;20216;-71
2022/11/27 04:09:04;;;;;;;17.33;7.17;;;5.90;99.90;;;;;;5044465;28;20242;-67
2022/11/27 04:11:31;;;;;;;16.67;7.47;;;6.00;99.90;;;;;;5044555;28;20507;-70
2022/11/27 04:13:58;;;;;;;24.20;8.97;;;6.00;99.90;;;;;;5050448;28;20512;-69
2022/11/27 04:16:24;;;;;;;17.30;7.10;;;6.00;99.90;;;;;;5042951;28;20227;-69
2022/11/27 04:18:51;;;;;;;17.60;7.83;;;6.00;99.90;;;;;;5031561;28;20196;-69
2022/11/27 04:21:18;;;;;;;15.07;6.97;;;6.10;99.90;;;;;;5043046;28;20222;-69
2022/11/27 04:23:45;;;;;;;16.80;7.10;;;6.10;99.90;;;;;;5044058;28;20203;-69
2022/11/27 04:26:12;;;;;;;15.93;7.23;;;6.10;99.90;;;;;;5045950;28;20225;-69
2022/11/27 04:28:39;;;;;;;17.70;6.60;;;6.10;99.90;;;;;;5030293;28;20211;-69
2022/11/27 04:31:06;;;;;;;14.03;6.47;;;6.10;99.90;;;;;;5045729;28;20209;-69
2022/11/27 04:33:33;;;;;;;15.80;6.60;;;6.20;99.90;;;;;;5037808;28;20293;-69
2022/11/27 04:35:59;;;;;;;14.23;6.30;;;6.20;99.90;;;;;;5041595;28;20249;-69
2022/11/27 04:38:26;;;;;;;16.37;7.43;;;6.20;99.90;;;;;;5042540;28;20342;-69
2022/11/27 04:40:53;;;;;;;16.97;6.73;;;6.20;99.90;;;;;;5028505;28;20205;-68
2022/11/27 04:43:20;;;;;;;20.23;6.50;;;6.20;99.90;;;;;;5046678;28;20225;-70
2022/11/27 04:45:46;;;;;;;16.40;7.23;;;6.20;99.90;;;;;;5041894;28;20214;-68
2022/11/27 04:48:13;;;;;;;13.97;7.40;;;6.20;99.90;;;;;;5049032;28;20195;-68
2022/11/27 04:50:40;;;;;;;17.13;7.07;;;6.20;99.90;;;;;;5043262;28;20210;-68
2022/11/27 04:53:07;;;;;;;16.70;6.97;;;6.20;99.90;;;;;;5050273;28;20228;-69
2022/11/27 04:55:34;;;;;;;17.47;6.63;;;6.30;99.90;;;;;;5044508;28;20212;-68
2022/11/27 04:58:01;;;;;;;14.07;6.37;;;6.30;99.90;;;;;;5045969;28;20327;-69
2022/11/27 05:00:28;;;;;;;19.13;6.47;;;6.30;99.90;;;;;;5046062;28;20836;-69
2022/11/27 05:02:54;;;;;;;19.73;7.00;;;6.30;99.90;;;;;;5041845;28;20214;-68
2022/11/27 05:05:21;;;;;;;18.27;6.70;;;6.30;99.90;;;;;;5044130;28;20203;-69
2022/11/27 05:07:49;;;;;;;12.03;6.00;;;6.40;99.90;;;;;;5042214;28;20212;-68
2022/11/27 05:10:16;;;;;;;11.07;6.00;;;6.40;99.90;;;;;;5044312;28;20315;-70
2022/11/27 05:12:43;;;;;;;14.30;6.27;;;6.40;99.90;;;;;;5044061;28;20635;-69
2022/11/27 05:15:10;;;;;;;14.77;6.43;;;6.40;99.90;;;;;;5042563;28;20210;-70
2022/11/27 05:17:37;;;;;;;14.63;6.07;;;6.40;99.90;;;;;;5043416;28;20266;-69
2022/11/27 05:20:04;;;;;;;13.20;5.60;;;6.40;99.90;;;;;;5039656;28;20234;-68
2022/11/27 05:22:31;;;;;;;11.83;5.00;;;6.50;99.90;;;;;;5044697;28;20754;-69
2022/11/27 05:24:58;;;;;;;16.57;6.50;;;6.50;99.90;;;;;;5041053;28;20216;-68
2022/11/27 05:27:24;;;;;;;14.53;6.70;;;6.50;99.90;;;;;;5047364;28;20605;-68
2022/11/27 05:29:51;;;;;;;17.00;6.53;;;6.50;99.90;;;;;;5040965;28;20220;-68
2022/11/27 05:32:18;;;;;;;18.20;6.30;;;6.50;99.90;;;;;;5043576;28;20350;-69
2022/11/27 05:34:47;;;;;;;14.70;7.20;;;6.50;99.90;;;;;;5030030;28;20313;-69
2022/11/27 05:37:14;;;;;;;14.67;5.90;;;6.50;99.90;;;;;;5031237;28;20479;-69
2022/11/27 05:39:45;;;;;;;15.03;5.80;;;6.50;99.90;;;;;;5045521;28;20198;-70
2022/11/27 05:42:12;;;;;;;15.23;6.27;;;6.50;99.90;;;;;;5041832;28;20229;-69
2022/11/27 05:44:39;;;;;;;18.43;6.43;;;6.50;99.90;;;;;;5047727;28;20298;-69
2022/11/27 05:47:06;;;;;;;14.63;6.63;;;6.50;99.90;;;;;;5040961;28;20201;-69
2022/11/27 05:49:33;;;;;;;10.30;5.87;;;6.60;99.90;;;;;;5044712;28;20581;-69
2022/11/27 05:52:00;;;;;;;14.40;6.53;;;6.50;99.90;;;;;;5045339;28;20282;-69
2022/11/27 05:54:26;;;;;;;16.53;6.43;;;6.50;99.90;;;;;;5041624;28;20208;-69
2022/11/27 05:56:53;;;;;;;16.13;6.13;;;6.50;99.90;;;;;;5043111;28;20560;-69
2022/11/27 05:59:20;;;;;;;14.30;5.90;;;6.60;99.90;;;;;;5037578;28;20542;-69
2022/11/27 06:01:48;;;;;;;13.00;6.40;;;6.60;99.90;;;;;;5042894;28;20758;-68
2022/11/27 06:04:15;;;;;;;12.33;6.13;;;6.60;99.90;;;;;;5047335;28;20238;-69
2022/11/27 06:06:42;;;;;;;12.10;6.77;;;6.60;99.90;;;;;;5035654;28;20654;-69
2022/11/27 06:09:10;;;;;;;12.33;6.03;;;6.60;99.90;;;;;;5040181;28;20715;-69
2022/11/27 06:11:40;;;;;;;13.53;6.50;;;6.60;99.90;;;;;;5042542;28;20312;-68
2022/11/27 06:14:10;;;;;;;14.63;6.27;;;6.60;99.90;;;;;;5039254;28;20235;-69
2022/11/27 06:16:37;;;;;;;12.67;6.47;;;6.60;99.90;;;;;;5039333;28;20277;-70
2022/11/27 06:19:04;;;;;;;18.43;6.30;;;6.60;99.90;;;;;;5044345;28;20198;-68
2022/11/27 06:21:31;;;;;;;17.87;7.60;;;6.60;99.90;;;;;;5042888;28;20207;-69
2022/11/27 06:23:58;;;;;;;16.93;6.63;;;6.60;99.90;;;;;;5036638;28;20208;-69
2022/11/27 06:26:29;;;;;;;17.67;6.87;;;6.60;99.90;;;;;;5038947;28;20205;-69
2022/11/27 06:28:58;;;;;;;12.47;6.43;;;6.60;99.90;;;;;;5047374;28;20209;-68
2022/11/27 06:31:27;;;;;;;11.43;6.43;;;6.60;99.90;;;;;;5041862;28;20215;-70
2022/11/27 06:33:55;;;;;;;14.60;6.40;;;6.70;99.90;;;;;;5030201;28;20688;-69
2022/11/27 06:36:28;;;;;;;12.90;6.87;;;6.60;99.90;;;;;;5035795;28;20353;-68
2022/11/27 06:38:56;;;;;;;18.57;6.50;;;6.70;99.90;;;;;;5044290;28;20247;-69
2022/11/27 06:41:25;;;;;;;16.80;6.93;;;6.70;99.90;;;;;;5042975;28;20697;-69
2022/11/27 06:43:54;;;;;;;19.23;7.57;;;6.70;99.90;;;;;;5041647;28;20275;-69
2022/11/27 06:46:21;;;;;;;17.57;7.10;;;6.70;99.90;;;;;;5038674;28;20219;-70
2022/11/27 06:48:51;;;;;;;15.43;6.63;;;6.70;99.90;;;;;;5045335;28;21048;-69
2022/11/27 06:51:20;;;;;;;11.43;5.80;;;6.70;99.90;;;;;;5049678;28;20720;-69
2022/11/27 06:53:48;;;;;;;14.47;6.23;;;6.70;99.90;;;;;;5044403;28;20294;-69
2022/11/27 06:56:19;;;;;;;12.37;6.77;;;6.70;99.90;;;;;;5042257;28;20247;-68
2022/11/27 06:58:49;;;;;;;19.57;7.57;;;6.70;99.90;;;;;;5046958;28;20207;-68
2022/11/27 07:01:16;;;;;;;14.90;7.40;;;6.70;99.90;;;;;;5045633;28;20298;-69
2022/11/27 07:03:44;;;;;;;16.17;6.97;;;6.70;99.90;;;;;;5032617;28;20240;-68
2022/11/27 07:06:14;;;;;;;18.37;7.57;;;6.70;99.90;;;;;;5042547;28;20295;-69
2022/11/27 07:08:41;;;;;;;15.47;7.07;;;6.70;99.90;;;;;;5042398;28;20568;-68
2022/11/27 07:11:20;;;;;;;13.93;7.60;;;6.70;99.90;;;;;;5023571;28;20209;-68
2022/11/27 07:13:48;;;;;;;16.47;6.70;;;6.70;99.90;;;;;;5043990;28;20296;-69
2022/11/27 07:16:16;;;;;;;20.57;8.00;;;6.70;99.90;;;;;;5044391;28;20231;-70
2022/11/27 07:18:46;;;;;;;15.13;7.63;;;6.70;99.90;;;;;;5042815;28;20235;-68
2022/11/27 07:21:15;;;;;;;13.63;7.00;;;6.70;99.90;;;;;;5041373;28;20637;-69
2022/11/27 07:23:43;;;;;;;18.43;7.73;;;6.70;99.90;;;;;;5045580;28;20269;-69
2022/11/27 07:26:12;;;;;;;15.17;7.20;;;6.70;99.90;;;;;;5044272;28;20198;-69
2022/11/27 07:28:42;;;;;;;17.60;7.67;;;6.70;99.90;;;;;;5045986;28;20280;-69
2022/11/27 07:31:12;;;;;;;16.77;7.70;;;6.80;99.90;;;;;;5043709;28;20212;-69
2022/11/27 07:33:40;;;;;;;18.40;7.83;;;6.80;99.90;;;;;;5043381;28;20219;-70
2022/11/27 07:36:15;;;;;;;14.97;7.33;;;6.80;99.90;;;;;;5025317;28;21427;-70
2022/11/27 07:38:43;;;;;;;14.30;7.80;;;6.80;99.90;;;;;;5025118;28;20662;-69
2022/11/27 07:41:11;;;;;;;18.53;7.90;;;6.80;99.90;;;;;;5029983;28;20233;-69
2022/11/27 07:43:38;;;;;;;18.10;8.53;;;6.80;99.90;;;;;;5036053;28;20293;-70
2022/11/27 07:46:07;;;;;;;17.43;8.47;;;6.80;99.90;;;;;;5010455;28;20297;-68
2022/11/27 07:48:34;;;;;;;17.87;9.00;;;6.80;99.90;;;;;;5026112;28;20211;-69
2022/11/27 07:51:00;;;;;;;16.43;8.37;;;6.80;99.90;;;;;;5026323;28;20612;-69
2022/11/27 07:53:27;;;;;;;16.60;8.20;;;6.80;99.90;;;;;;5024629;28;20204;-70
2022/11/27 07:55:59;;;;;;;17.97;8.57;;;6.70;99.90;;;;;;5014385;28;20574;-68
2022/11/27 07:58:25;;;;;;;19.57;8.33;;;6.80;99.90;;;;;;5019481;28;20270;-69
2022/11/27 08:00:52;;;;;;;19.87;8.40;;;6.80;99.90;;;;;;5015167;28;20274;-68
2022/11/27 08:03:19;;;;;;;17.40;8.93;;;6.80;99.90;;;;;;5008558;28;20317;-70
2022/11/27 08:05:46;;;;;;;19.40;8.63;;;6.70;99.90;;;;;;5008808;28;20289;-69
2022/11/27 08:08:13;;;;;;;23.77;9.20;;;6.70;99.90;;;;;;5023461;28;20212;-69
2022/11/27 08:10:40;;;;;;;17.80;8.50;;;6.70;99.90;;;;;;5027242;28;20784;-68
2022/11/27 08:13:09;;;;;;;19.07;9.33;;;6.70;99.90;;;;;;5019779;28;20947;-69
2022/11/27 08:15:38;;;;;;;19.80;9.20;;;6.70;99.90;;;;;;5024727;28;20223;-70
2022/11/27 08:18:05;;;;;;;21.90;9.67;;;6.70;99.90;;;;;;5025510;28;20280;-69
2022/11/27 08:20:32;;;;;;;16.60;8.97;;;6.70;99.90;;;;;;5023295;28;20230;-68
2022/11/27 08:22:58;;;;;;;19.27;9.30;;;6.80;99.90;;;;;;5031171;28;20223;-69
2022/11/27 08:25:29;;;;;;;24.27;9.20;;;6.80;99.90;;;;;;5028864;28;20276;-69
2022/11/27 08:27:56;;;;;;;23.00;9.63;;;6.80;99.90;;;;;;5048574;28;20325;-69
2022/11/27 08:30:23;;;;;;;20.93;9.03;;;6.80;99.90;;;;;;5035281;28;20252;-69
2022/11/27 08:32:50;;;;;;;19.13;9.33;;;6.80;99.90;;;;;;5034457;28;20202;-69
2022/11/27 08:35:17;;;;;;;20.10;10.13;;;6.80;99.90;;;;;;5031775;28;20209;-69
2022/11/27 08:37:44;;;;;;;19.27;10.47;;;6.80;99.90;;;;;;5024584;28;20357;-69
2022/11/27 08:40:11;;;;;;;22.37;10.60;;;6.80;99.90;;;;;;5030620;28;20652;-69
2022/11/27 08:42:37;;;;;;;22.83;10.77;;;6.80;99.90;;;;;;5023451;28;20301;-70
2022/11/27 08:45:04;;;;;;;23.73;9.97;;;6.70;99.90;;;;;;5019710;28;20213;-68
2022/11/27 08:47:31;;;;;;;22.20;10.70;;;6.80;99.90;;;;;;5026491;28;20574;-69
2022/11/27 08:49:59;;;;;;;29.33;10.17;;;6.80;99.90;;;;;;5022461;28;20206;-68
2022/11/27 08:52:26;;;;;;;22.47;9.83;;;6.80;99.90;;;;;;5029260;28;20201;-69
2022/11/27 08:54:52;;;;;;;24.33;10.57;;;6.80;99.90;;;;;;5021405;28;20222;-69
2022/11/27 08:57:23;;;;;;;21.93;10.20;;;6.80;99.90;;;;;;5025246;28;20266;-68
2022/11/27 08:59:50;;;;;;;23.10;10.97;;;6.80;99.90;;;;;;5020981;28;20241;-70
2022/11/27 09:02:17;;;;;;;23.70;10.67;;;6.80;99.90;;;;;;5023407;28;20201;-69
2022/11/27 09:04:44;;;;;;;23.70;10.93;;;6.80;99.90;;;;;;5023187;28;20216;-69
2022/11/27 09:07:14;;;;;;;25.37;10.40;;;6.80;99.90;;;;;;5026070;28;20303;-68
2022/11/27 09:09:41;;;;;;;23.50;11.00;;;6.80;99.90;;;;;;5040313;28;20276;-69
2022/11/27 09:12:08;;;;;;;26.00;10.97;;;6.70;99.90;;;;;;5026547;28;20208;-70
2022/11/27 09:14:35;;;;;;;23.40;11.07;;;6.80;99.90;;;;;;5025208;28;20260;-68
2022/11/27 09:17:02;;;;;;;23.23;10.20;;;6.80;99.90;;;;;;5021478;28;20334;-69
2022/11/27 09:19:29;;;;;;;23.47;11.07;;;6.80;99.90;;;;;;5006786;28;20234;-70
2022/11/27 09:21:56;;;;;;;24.90;11.10;;;6.70;99.90;;;;;;5023940;28;20197;-69
2022/11/27 09:24:23;;;;;;;27.23;10.97;;;6.80;99.90;;;;;;5025305;28;20224;-69
2022/11/27 09:26:50;;;;;;;25.50;10.83;;;6.80;99.90;;;;;;5024149;28;20209;-69
2022/11/27 09:29:17;;;;;;;30.67;13.10;;;6.80;99.90;;;;;;5024909;28;20202;-69
2022/11/27 09:31:44;;;;;;;24.43;11.93;;;6.80;99.90;;;;;;5023740;28;20205;-70
2022/11/27 09:34:11;;;;;;;25.40;11.40;;;6.80;99.90;;;;;;5016413;28;20209;-70
2022/11/27 09:36:37;;;;;;;23.77;11.47;;;6.80;99.90;;;;;;5021220;28;20243;-71
2022/11/27 09:39:04;;;;;;;24.10;10.73;;;6.80;99.90;;;;;;5017486;28;20323;-69
2022/11/27 09:41:32;;;;;;;23.77;11.00;;;6.80;99.90;;;;;;5013115;28;20590;-69
2022/11/27 09:44:05;;;;;;;24.17;11.07;;;6.80;99.90;;;;;;5026880;28;20229;-70
2022/11/27 09:46:36;;;;;;;27.27;11.10;;;6.80;99.90;;;;;;5025629;28;20206;-70
2022/11/27 09:49:06;;;;;;;29.47;13.03;;;6.90;99.90;;;;;;5005818;28;20251;-69
2022/11/27 09:51:35;;;;;;;24.87;11.50;;;6.90;99.90;;;;;;5020851;28;20634;-69
2022/11/27 09:54:27;;;;;;;22.33;11.00;;;6.90;99.90;;;;;;5019141;28;20212;-68
2022/11/27 09:56:55;;;;;;;22.40;12.23;;;7.00;99.90;;;;;;5023008;28;20769;-69
2022/11/27 09:59:28;;;;;;;26.47;12.30;;;7.00;99.90;;;;;;5025106;28;20305;-69
2022/11/27 10:01:55;;;;;;;25.33;11.00;;;7.00;99.90;;;;;;5028802;28;20206;-69
2022/11/27 10:04:24;;;;;;;25.37;10.57;;;7.00;99.90;;;;;;5029238;28;20251;-69
2022/11/27 10:07:17;;;;;;;23.00;11.27;;;7.00;99.90;;;;;;5005813;28;20222;-70
2022/11/27 10:10:07;;;;;;;23.63;11.77;;;7.10;99.90;;;;;;5018606;28;20216;-69
2022/11/27 10:12:36;;;;;;;27.60;10.80;;;7.10;99.90;;;;;;5021675;28;20251;-69
2022/11/27 10:15:08;;;;;;;29.07;11.90;;;7.10;99.90;;;;;;5023073;28;20595;-70
2022/11/27 10:18:00;;;;;;;25.03;10.63;;;7.10;99.90;;;;;;5025827;28;20230;-69
2022/11/27 10:20:43;;;;;;;20.97;10.17;;;7.20;99.90;;;;;;5023854;28;20226;-70
2022/11/27 10:23:13;;;;;;;23.40;11.20;;;7.10;99.90;;;;;;5025204;28;20211;-69
2022/11/27 10:25:45;;;;;;;24.73;11.53;;;7.20;99.90;;;;;;5021634;28;20702;-70
2022/11/27 10:28:12;;;;;;;30.87;12.00;;;7.20;99.90;;;;;;5023314;28;20336;-69
2022/11/27 10:30:51;;;;;;;25.37;9.97;;;7.20;99.90;;;;;;5025770;28;20288;-69
2022/11/27 10:33:29;;;;;;;25.80;11.63;;;7.30;99.90;;;;;;5025489;28;20236;-69
2022/11/27 10:35:57;;;;;;;22.80;10.63;;;7.30;99.90;;;;;;5010218;28;20316;-69
2022/11/27 10:38:30;;;;;;;20.43;11.23;;;7.30;99.90;;;;;;5033639;28;20251;-69
2022/11/27 10:41:17;;;;;;;26.63;11.00;;;7.30;99.90;;;;;;5044460;28;20292;-70
2022/11/27 10:44:30;;;;;;;23.47;10.93;;;7.40;99.90;;;;;;5042878;28;20234;-69
2022/11/27 10:47:08;;;;;;;28.40;11.63;;;7.40;99.90;;;;;;5041163;28;20324;-68
2022/11/27 10:49:39;;;;;;;23.67;11.03;;;7.40;99.90;;;;;;5043079;28;20497;-69
2022/11/27 10:52:14;;;;;;;23.87;11.63;;;7.40;99.90;;;;;;5032437;28;20349;-69
2022/11/27 10:54:44;;;;;;;25.50;10.97;;;7.50;99.90;;;;;;5023903;28;20262;-69
2022/11/27 10:57:28;;;;;;;20.13;11.03;;;7.50;99.90;;;;;;5046924;28;20301;-71
2022/11/27 11:00:04;;;;;;;19.07;10.23;;;7.50;99.90;;;;;;5045147;28;20666;-71
2022/11/27 11:02:34;;;;;;;22.40;10.47;;;7.50;99.90;;;;;;5043611;28;20583;-70
2022/11/27 11:05:21;;;;;;;21.43;10.83;;;7.50;99.90;;;;;;5043790;28;20241;-68
2022/11/27 11:08:18;;;;;;;28.20;12.53;;;7.50;99.90;;;;;;5043991;28;20194;-70
2022/11/27 11:10:51;;;;;;;23.83;10.03;;;7.60;99.90;;;;;;5023974;28;20633;-68
2022/11/27 11:13:21;;;;;;;22.50;10.13;;;7.60;99.90;;;;;;5043855;28;20218;-69
2022/11/27 11:15:57;;;;;;;25.10;10.90;;;7.60;99.90;;;;;;5046374;28;20232;-70
2022/11/27 11:18:48;;;;;;;20.00;10.60;;;7.60;99.90;;;;;;5056080;28;20313;-69
2022/11/27 11:21:26;;;;;;;21.10;10.13;;;7.70;99.90;;;;;;5005704;28;20228;-69
2022/11/27 11:24:20;;;;;;;18.60;9.63;;;7.60;99.90;;;;;;5046100;28;20228;-68
2022/11/27 11:26:51;;;;;;;21.40;11.73;;;7.70;99.90;;;;;;5044399;28;20791;-69
2022/11/27 11:29:32;;;;;;;18.20;9.80;;;7.60;99.90;;;;;;5046208;28;20564;-68
2022/11/27 11:32:10;;;;;;;16.23;9.30;;;7.70;99.90;;;;;;5048351;28;20291;-69
2022/11/27 11:34:45;;;;;;;21.43;10.50;;;7.70;99.90;;;;;;5044455;28;20664;-68
2022/11/27 11:37:32;;;;;;;20.07;9.80;;;7.60;99.90;;;;;;5049408;28;20259;-67
2022/11/27 11:40:00;;;;;;;20.00;9.57;;;7.70;99.90;;;;;;5063440;28;20209;-68
2022/11/27 11:42:33;;;;;;;23.00;11.07;;;7.70;99.90;;;;;;5039531;28;20227;-69
2022/11/27 11:45:04;;;;;;;15.23;9.63;;;7.70;99.90;;;;;;5046706;28;20222;-70
2022/11/27 11:47:35;;;;;;;21.23;9.77;;;7.80;99.90;;;;;;5048298;28;20280;-69
2022/11/27 11:50:02;;;;;;;16.30;9.33;;;7.80;99.90;;;;;;5032579;28;20212;-69
2022/11/27 11:52:37;;;;;;;19.53;9.97;;;7.80;99.90;;;;;;5047644;28;20629;-69
2022/11/27 11:55:47;;;;;;;14.30;8.93;;;7.80;99.90;;;;;;5048426;28;20750;-68
2022/11/27 11:58:48;;;;;;;15.83;8.93;;;7.80;99.90;;;;;;5046973;28;20224;-68
2022/11/27 12:01:22;;;;;;;20.27;10.57;;;7.90;99.90;;;;;;5038544;28;20577;-69
2022/11/27 12:04:12;;;;;;;15.07;8.83;;;7.90;99.90;;;;;;5043107;28;20212;-69
2022/11/27 12:07:07;;;;;;;16.17;9.10;;;7.90;99.90;;;;;;5044969;28;20198;-69
2022/11/27 12:09:34;;;;;;;17.83;10.67;;;7.90;99.90;;;;;;5043542;28;20247;-69
2022/11/27 12:12:24;;;;;;;19.77;9.43;;;7.90;99.90;;;;;;5049617;28;20599;-69
2022/11/27 12:15:10;;;;;;;21.07;9.60;;;7.90;99.90;;;;;;5045765;28;20213;-67
2022/11/27 12:17:49;;;;;;;18.83;10.30;;;8.00;99.90;;;;;;5034605;28;20285;-68
2022/11/27 12:20:23;;;;;;;16.83;9.10;;;8.10;99.90;;;;;;5039863;28;20205;-69
2022/11/27 12:23:15;;;;;;;15.53;9.33;;;8.10;99.90;;;;;;5046392;28;20290;-70
2022/11/27 12:25:52;;;;;;;16.07;9.27;;;8.20;99.90;;;;;;5042415;28;20246;-69
2022/11/27 12:28:40;;;;;;;19.17;9.13;;;8.20;99.90;;;;;;5045518;28;20297;-69
2022/11/27 12:31:24;;;;;;;17.20;8.93;;;8.20;99.90;;;;;;5047497;28;20200;-68
2022/11/27 12:34:00;;;;;;;16.10;8.90;;;8.20;99.90;;;;;;5036649;28;20280;-69
2022/11/27 12:36:46;;;;;;;18.90;10.07;;;8.20;99.90;;;;;;5044569;28;20243;-69
2022/11/27 12:39:37;;;;;;;17.47;9.03;;;8.20;99.90;;;;;;5041904;28;20312;-68
2022/11/27 12:42:19;;;;;;;18.33;9.97;;;8.20;99.90;;;;;;5037076;28;20227;-69
2022/11/27 12:45:11;;;;;;;19.40;9.47;;;8.10;99.90;;;;;;5040515;28;20196;-69
2022/11/27 12:47:55;;;;;;;13.17;8.33;;;8.10;99.90;;;;;;5041901;28;20694;-70
2022/11/27 12:51:00;;;;;;;14.93;8.70;;;8.10;99.90;;;;;;5045163;28;20204;-69
2022/11/27 12:53:36;;;;;;;17.47;8.80;;;8.10;99.90;;;;;;5043453;28;20193;-69
2022/11/27 12:56:20;;;;;;;13.43;8.03;;;8.10;99.90;;;;;;5044390;28;20210;-69
2022/11/27 12:59:02;;;;;;;16.10;8.03;;;8.10;99.90;;;;;;5053183;28;20748;-68
2022/11/27 13:01:38;;;;;;;18.00;8.30;;;8.20;99.90;;;;;;5036353;28;20292;-71
2022/11/27 13:04:47;;;;;;;18.63;8.90;;;8.20;99.90;;;;;;5039479;28;20584;-69
2022/11/27 13:07:25;;;;;;;15.00;9.20;;;8.20;99.90;;;;;;5035783;28;20295;-69
2022/11/27 13:09:59;;;;;;;12.17;7.73;;;8.10;99.90;;;;;;5053736;28;20560;-69